createdAt,value
2019-03-05T00:01:16.924Z,71.91
2019-03-05T00:03:47.189Z,70.99
2019-03-05T00:06:20.574Z,71.14
2019-03-05T00:08:55.568Z,71.65
2019-03-05T00:11:24.961Z,72.25
2019-03-05T00:13:55.557Z,71.63
2019-03-05T00:16:24.922Z,72.03
2019-03-05T00:18:54.320Z,72.72
2019-03-05T00:21:23.419Z,71.76
2019-03-05T00:23:58.499Z,71.23
2019-03-05T00:26:33.562Z,71.63
2019-03-05T00:29:20.292Z,71.38
2019-03-05T00:31:50.745Z,72.85
2019-03-05T00:34:37.924Z,72.16
2019-03-05T00:37:33.189Z,72.31
2019-03-05T00:40:19.991Z,72.23
2019-03-05T00:43:13.097Z,72.77
2019-03-05T00:45:58.877Z,72.80
2019-03-05T00:49:14.805Z,71.93
2019-03-05T00:52:13.286Z,71.61
2019-03-05T00:55:27.148Z,72.73
2019-03-05T00:58:28.043Z,71.90
2019-03-05T01:01:15.878Z,71.66
2019-03-05T01:04:36.922Z,72.00
2019-03-05T01:07:08.754Z,73.17
2019-03-05T01:09:38.328Z,74.31
2019-03-05T01:12:09.320Z,74.80
2019-03-05T01:14:39.654Z,75.82
2019-03-05T01:17:09.923Z,76.06
2019-03-05T01:19:39.777Z,75.85
2019-03-05T01:22:12.451Z,76.03
2019-03-05T01:24:41.675Z,76.12
2019-03-05T01:27:10.833Z,75.91
2019-03-05T01:29:42.030Z,76.19
2019-03-05T01:32:37.218Z,76.25
2019-03-05T01:35:12.903Z,76.15
2019-03-05T01:37:43.491Z,76.72
2019-03-05T01:40:37.017Z,76.82
2019-03-05T01:43:06.190Z,77.19
2019-03-05T01:45:36.684Z,76.74
2019-03-05T01:48:06.238Z,76.52
2019-03-05T01:50:35.374Z,76.15
2019-03-05T01:53:05.848Z,76.66
2019-03-05T01:55:34.936Z,76.91
2019-03-05T01:58:05.854Z,76.77
2019-03-05T02:00:38.964Z,77.05
2019-03-05T02:03:08.079Z,76.97
2019-03-05T02:05:40.195Z,77.34
2019-03-05T02:08:12.440Z,77.48
2019-03-05T02:10:42.140Z,77.78
2019-03-05T02:13:12.420Z,77.72
2019-03-05T02:15:43.736Z,77.82
2019-03-05T02:18:27.924Z,77.92
2019-03-05T02:20:58.293Z,78.10
2019-03-05T02:23:32.346Z,77.61
2019-03-05T02:26:37.907Z,77.42
2019-03-05T02:29:40.939Z,76.85
2019-03-05T02:32:43.201Z,76.83
2019-03-05T02:35:30.825Z,76.35
2019-03-05T02:38:41.172Z,75.00
2019-03-05T02:41:38.827Z,75.30
2019-03-05T02:44:54.628Z,76.52
2019-03-05T02:48:09.714Z,75.21
2019-03-05T02:51:20.056Z,75.67
2019-03-05T02:54:16.335Z,75.54
2019-03-05T02:57:12.272Z,75.53
2019-03-05T02:59:43.211Z,76.11
2019-03-05T03:02:33.198Z,75.69
2019-03-05T03:05:41.385Z,76.26
2019-03-05T03:07:58.547Z,76.66
2019-03-05T03:10:27.685Z,77.20
2019-03-05T03:12:57.013Z,77.55
2019-03-05T03:15:50.413Z,77.40
2019-03-05T03:18:20.782Z,77.73
2019-03-05T03:20:54.561Z,77.76
2019-03-05T03:23:26.849Z,77.24
2019-03-05T03:25:59.010Z,76.86
2019-03-05T03:28:28.200Z,76.44
2019-03-05T03:31:02.707Z,76.21
2019-03-05T03:33:31.863Z,77.19
2019-03-05T03:36:01.026Z,77.04
2019-03-05T03:38:30.147Z,76.83
2019-03-05T03:41:00.372Z,77.77
2019-03-05T03:43:29.528Z,78.47
2019-03-05T03:45:58.771Z,78.48
2019-03-05T03:48:37.671Z,78.70
2019-03-05T03:51:08.974Z,78.62
2019-03-05T03:53:38.346Z,78.89
2019-03-05T03:56:10.181Z,78.08
2019-03-05T03:58:42.406Z,78.10
2019-03-05T04:01:11.653Z,77.79
2019-03-05T04:03:44.971Z,77.64
2019-03-05T04:06:14.314Z,78.31
2019-03-05T04:08:43.637Z,78.41
2019-03-05T04:11:12.963Z,78.77
2019-03-05T04:13:42.134Z,78.14
2019-03-05T04:16:14.860Z,78.37
2019-03-05T04:18:45.495Z,78.01
2019-03-05T04:21:20.178Z,78.34
2019-03-05T04:23:49.498Z,78.31
2019-03-05T04:26:21.058Z,78.30
2019-03-05T04:28:50.346Z,77.92
2019-03-05T04:31:22.615Z,78.34
2019-03-05T04:33:54.625Z,77.25
2019-03-05T04:36:25.599Z,77.73
2019-03-05T04:38:55.128Z,77.31
2019-03-05T04:41:30.480Z,77.01
2019-03-05T04:43:59.928Z,77.10
2019-03-05T04:46:36.595Z,78.04
2019-03-05T04:49:33.930Z,78.41
2019-03-05T04:52:06.007Z,77.15
2019-03-05T04:54:36.761Z,78.43
2019-03-05T04:57:07.719Z,78.21
2019-03-05T04:59:37.099Z,77.96
2019-03-05T05:02:07.105Z,78.51
2019-03-05T05:04:36.249Z,78.31
2019-03-05T05:07:05.569Z,77.70
2019-03-05T05:09:42.008Z,77.90
2019-03-05T05:12:11.349Z,77.95
2019-03-05T05:14:40.449Z,77.57
2019-03-05T05:17:12.802Z,76.75
2019-03-05T05:19:44.283Z,77.76
2019-03-05T05:22:13.625Z,77.78
2019-03-05T05:24:44.355Z,77.59
2019-03-05T05:27:19.942Z,77.46
2019-03-05T05:29:49.073Z,77.74
2019-03-05T05:32:18.355Z,77.73
2019-03-05T05:34:50.442Z,77.54
2019-03-05T05:37:30.636Z,77.25
2019-03-05T05:40:22.288Z,77.13
2019-03-05T05:42:53.938Z,77.28
2019-03-05T05:45:24.686Z,77.19
2019-03-05T05:47:59.888Z,76.95
2019-03-05T05:50:30.683Z,77.14
2019-03-05T05:53:02.339Z,76.55
2019-03-05T05:55:31.528Z,76.90
2019-03-05T05:58:05.721Z,76.34
2019-03-05T06:00:42.317Z,76.30
2019-03-05T06:03:11.459Z,75.96
2019-03-05T06:05:40.589Z,75.56
2019-03-05T06:08:10.037Z,76.60
2019-03-05T06:10:39.619Z,76.47
2019-03-05T06:13:10.844Z,76.67
2019-03-05T06:15:39.659Z,76.86
2019-03-05T06:18:08.827Z,76.32
2019-03-05T06:20:37.964Z,75.89
2019-03-05T06:23:09.108Z,76.14
2019-03-05T06:25:38.232Z,76.43
2019-03-05T06:28:10.236Z,76.27
2019-03-05T06:30:39.478Z,76.43
2019-03-05T06:33:15.182Z,75.91
2019-03-05T06:35:45.615Z,76.42
2019-03-05T06:38:17.599Z,76.02
2019-03-05T06:40:48.229Z,76.36
2019-03-05T06:43:17.405Z,76.38
2019-03-05T06:45:46.533Z,76.02
2019-03-05T06:48:17.769Z,75.72
2019-03-05T06:50:49.632Z,76.88
2019-03-05T06:53:18.824Z,77.45
2019-03-05T06:55:48.048Z,77.47
2019-03-05T06:58:17.275Z,77.32
2019-03-05T07:00:57.472Z,77.63
2019-03-05T07:03:31.864Z,77.29
2019-03-05T07:06:36.455Z,77.36
2019-03-05T07:09:20.022Z,77.77
2019-03-05T07:12:41.111Z,77.73
2019-03-05T07:15:55.674Z,77.81
2019-03-05T07:18:34.301Z,77.43
2019-03-05T07:21:36.833Z,77.11
2019-03-05T07:24:47.744Z,76.91
2019-03-05T07:27:29.996Z,76.26
2019-03-05T07:30:09.199Z,75.70
2019-03-05T07:32:38.693Z,75.23
2019-03-05T07:35:09.509Z,74.71
2019-03-05T07:37:41.547Z,73.75
2019-03-05T07:40:24.704Z,73.32
2019-03-05T07:42:53.877Z,72.71
2019-03-05T07:45:23.899Z,71.85
2019-03-05T07:47:53.053Z,71.62
2019-03-05T07:50:22.232Z,71.49
2019-03-05T07:52:51.359Z,70.05
2019-03-05T07:55:34.104Z,69.63
2019-03-05T07:58:03.739Z,69.87
2019-03-05T08:00:36.064Z,69.39
2019-03-05T08:03:08.253Z,69.47
2019-03-05T08:05:40.927Z,68.90
2019-03-05T08:08:45.952Z,68.80
2019-03-05T08:11:15.300Z,69.00
2019-03-05T08:14:25.341Z,69.17
2019-03-05T08:16:57.733Z,68.46
2019-03-05T08:19:27.102Z,68.00
2019-03-05T08:21:59.077Z,68.04
2019-03-05T08:24:28.398Z,68.59
2019-03-05T08:27:00.293Z,68.12
2019-03-05T08:29:35.392Z,68.36
2019-03-05T08:32:04.829Z,68.66
2019-03-05T08:34:36.616Z,68.92
2019-03-05T08:37:30.099Z,67.89
2019-03-05T08:39:59.295Z,68.48
2019-03-05T08:42:28.499Z,67.45
2019-03-05T08:44:59.358Z,66.15
2019-03-05T08:47:28.655Z,66.93
2019-03-05T08:49:59.840Z,66.74
2019-03-05T08:52:29.718Z,66.40
2019-03-05T08:55:00.369Z,64.98
2019-03-05T08:57:32.515Z,64.17
2019-03-05T09:00:05.981Z,64.49
2019-03-05T09:02:47.998Z,62.79
2019-03-05T09:05:13.807Z,62.57
2019-03-05T09:07:43.137Z,61.65
2019-03-05T09:10:16.000Z,62.56
2019-03-05T09:12:45.119Z,61.55
2019-03-05T09:15:16.167Z,61.79
2019-03-05T09:17:45.566Z,62.00
2019-03-05T09:20:18.743Z,59.33
2019-03-05T09:22:50.440Z,59.13
2019-03-05T09:25:21.569Z,59.64
2019-03-05T09:27:50.704Z,59.69
2019-03-05T09:30:22.189Z,58.68
2019-03-05T09:32:52.289Z,59.49
2019-03-05T09:35:21.690Z,56.62
2019-03-05T09:37:50.858Z,58.92
2019-03-05T09:40:27.465Z,58.97
2019-03-05T09:43:05.933Z,58.71
2019-03-05T09:45:36.156Z,59.21
2019-03-05T09:48:11.859Z,59.25
2019-03-05T09:50:41.159Z,59.13
2019-03-05T09:53:11.331Z,58.74
2019-03-05T09:55:46.606Z,59.36
2019-03-05T09:58:24.144Z,59.42
2019-03-05T10:00:53.319Z,59.27
2019-03-05T10:03:22.495Z,59.37
2019-03-05T10:05:51.601Z,58.34
2019-03-05T10:08:32.506Z,57.86
2019-03-05T10:11:07.049Z,57.18
2019-03-05T10:13:43.570Z,57.12
2019-03-05T10:16:12.970Z,56.50
2019-03-05T10:18:45.031Z,57.50
2019-03-05T10:21:15.970Z,56.50
2019-03-05T10:23:54.580Z,55.99
2019-03-05T10:26:27.515Z,55.92
2019-03-05T10:28:57.806Z,56.97
2019-03-05T10:31:27.221Z,58.34
2019-03-05T10:33:58.470Z,57.79
2019-03-05T10:36:31.030Z,58.66
2019-03-05T10:39:01.513Z,59.29
2019-03-05T10:41:31.534Z,59.84
2019-03-05T10:44:04.899Z,60.59
2019-03-05T10:46:34.379Z,61.21
2019-03-05T10:49:03.785Z,61.02
2019-03-05T10:51:33.688Z,61.84
2019-03-05T10:54:04.073Z,61.52
2019-03-05T10:56:38.637Z,61.91
2019-03-05T10:59:07.941Z,61.88
2019-03-05T11:01:38.292Z,61.82
2019-03-05T11:04:07.675Z,61.29
2019-03-05T11:06:40.749Z,60.52
2019-03-05T11:09:10.960Z,60.82
2019-03-05T11:11:40.315Z,60.76
2019-03-05T11:14:10.826Z,60.06
2019-03-05T11:16:40.350Z,61.22
2019-03-05T11:19:09.787Z,61.23
2019-03-05T11:21:40.046Z,61.02
2019-03-05T11:24:13.652Z,61.29
2019-03-05T11:26:46.237Z,60.65
2019-03-05T11:29:16.087Z,60.27
2019-03-05T11:31:45.544Z,60.51
2019-03-05T11:34:19.212Z,59.86
2019-03-05T11:36:48.372Z,59.58
2019-03-05T11:39:21.105Z,60.80
2019-03-05T11:41:51.760Z,61.56
2019-03-05T11:44:21.043Z,60.93
2019-03-05T11:46:50.259Z,60.71
2019-03-05T11:49:20.709Z,60.44
2019-03-05T11:51:59.585Z,61.27
2019-03-05T11:54:32.807Z,61.84
2019-03-05T11:57:09.528Z,61.60
2019-03-05T11:59:41.651Z,62.05
2019-03-05T12:02:21.403Z,62.30
2019-03-05T12:04:50.562Z,63.05
2019-03-05T12:07:20.956Z,63.49
2019-03-05T12:09:50.557Z,63.42
2019-03-05T12:12:21.450Z,63.88
2019-03-05T12:14:51.531Z,64.06
2019-03-05T12:17:23.034Z,64.00
2019-03-05T12:19:53.220Z,64.20
2019-03-05T12:22:27.996Z,64.43
2019-03-05T12:25:10.064Z,64.74
2019-03-05T12:27:39.181Z,65.39
2019-03-05T12:30:10.219Z,66.18
2019-03-05T12:32:39.527Z,66.43
2019-03-05T12:35:09.226Z,66.76
2019-03-05T12:37:40.063Z,66.50
2019-03-05T12:40:12.931Z,66.08
2019-03-05T12:42:47.764Z,66.11
2019-03-05T12:45:18.643Z,66.70
2019-03-05T12:47:49.959Z,66.88
2019-03-05T12:50:37.699Z,67.36
2019-03-05T12:53:17.481Z,66.96
2019-03-05T12:55:46.660Z,67.71
2019-03-05T12:58:26.025Z,68.54
2019-03-05T13:00:47.287Z,68.42
2019-03-05T13:03:26.070Z,68.44
2019-03-05T13:05:57.296Z,68.97
2019-03-05T13:08:28.618Z,70.82
2019-03-05T13:10:59.339Z,71.09
2019-03-05T13:13:37.483Z,70.55
2019-03-05T13:16:16.009Z,70.95
2019-03-05T13:18:45.246Z,71.12
2019-03-05T13:21:14.460Z,72.43
2019-03-05T13:23:48.392Z,72.63
2019-03-05T13:26:17.810Z,73.04
2019-03-05T13:28:48.689Z,72.36
2019-03-05T13:31:19.435Z,73.47
2019-03-05T13:33:53.843Z,75.10
2019-03-05T13:36:26.811Z,75.49
2019-03-05T13:39:01.988Z,75.92
2019-03-05T13:41:34.494Z,75.58
2019-03-05T13:44:08.088Z,76.36
2019-03-05T13:46:38.910Z,76.53
2019-03-05T13:49:27.661Z,76.31
2019-03-05T13:52:35.957Z,75.93
2019-03-05T13:55:44.048Z,76.58
2019-03-05T13:59:09.742Z,76.46
2019-03-05T14:01:39.246Z,78.06
2019-03-05T14:04:16.895Z,77.93
2019-03-05T14:07:30.326Z,78.29
2019-03-05T14:10:05.678Z,78.53
2019-03-05T14:12:33.255Z,78.73
2019-03-05T14:15:04.863Z,79.05
2019-03-05T14:17:43.612Z,77.87
2019-03-05T14:20:16.250Z,78.51
2019-03-05T14:22:49.948Z,78.33
2019-03-05T14:25:20.355Z,78.47
2019-03-05T14:27:52.414Z,79.32
2019-03-05T14:30:22.174Z,79.86
2019-03-05T14:32:51.326Z,80.52
2019-03-05T14:35:22.626Z,81.23
2019-03-05T14:37:54.759Z,81.17
2019-03-05T14:40:32.126Z,80.96
2019-03-05T14:43:01.776Z,80.77
2019-03-05T14:45:41.292Z,80.85
2019-03-05T14:48:11.798Z,80.87
2019-03-05T14:50:42.529Z,79.71
2019-03-05T14:53:11.716Z,80.02
2019-03-05T14:55:40.895Z,80.99
2019-03-05T14:58:13.830Z,80.50
2019-03-05T15:00:48.590Z,79.59
2019-03-05T15:03:20.875Z,79.47
2019-03-05T15:05:50.789Z,79.57
2019-03-05T15:08:19.968Z,80.80
2019-03-05T15:10:49.134Z,79.36
2019-03-05T15:13:20.067Z,78.54
2019-03-05T15:15:49.237Z,79.17
2019-03-05T15:18:20.543Z,79.55
2019-03-05T15:20:58.784Z,79.63
2019-03-05T15:23:33.358Z,78.36
2019-03-05T15:26:02.834Z,78.62
2019-03-05T15:28:34.205Z,78.64
2019-03-05T15:31:03.413Z,78.38
2019-03-05T15:33:32.574Z,78.70
2019-03-05T15:36:01.765Z,79.80
2019-03-05T15:38:33.330Z,78.39
2019-03-05T15:41:02.628Z,78.39
2019-03-05T15:43:31.828Z,78.99
2019-03-05T15:46:00.992Z,78.81
2019-03-05T15:48:31.504Z,78.90
2019-03-05T15:51:01.412Z,79.71
2019-03-05T15:53:34.031Z,80.09
2019-03-05T15:56:04.602Z,80.01
2019-03-05T15:58:33.959Z,81.24
2019-03-05T16:01:03.127Z,80.14
2019-03-05T16:03:32.549Z,81.34
2019-03-05T16:06:03.487Z,80.82
2019-03-05T16:08:36.270Z,82.11
2019-03-05T16:11:05.439Z,81.58
2019-03-05T16:13:34.638Z,81.54
2019-03-05T16:16:04.478Z,82.53
2019-03-05T16:18:33.638Z,81.87
2019-03-05T16:21:06.786Z,82.33
2019-03-05T16:23:34.771Z,83.55
2019-03-05T16:26:03.935Z,82.66
2019-03-05T16:28:34.514Z,83.23
2019-03-05T16:31:21.894Z,83.13
2019-03-05T16:34:13.209Z,83.62
2019-03-05T16:37:14.536Z,83.83
2019-03-05T16:40:12.539Z,84.19
2019-03-05T16:43:02.501Z,84.41
2019-03-05T16:45:48.745Z,84.39
2019-03-05T16:48:39.002Z,84.01
2019-03-05T16:51:31.300Z,84.70
2019-03-05T16:54:28.381Z,84.30
2019-03-05T16:57:28.551Z,84.54
2019-03-05T17:00:15.505Z,83.97
2019-03-05T17:03:02.175Z,83.44
2019-03-05T17:05:58.614Z,83.15
2019-03-05T17:09:04.730Z,83.00
2019-03-05T17:12:02.473Z,81.62
2019-03-05T17:14:34.798Z,83.62
2019-03-05T17:17:04.232Z,83.65
2019-03-05T17:19:33.342Z,83.63
2019-03-05T17:22:04.529Z,83.77
2019-03-05T17:24:38.674Z,83.83
2019-03-05T17:27:10.261Z,82.96
2019-03-05T17:29:41.649Z,83.12
2019-03-05T17:32:16.791Z,82.41
2019-03-05T17:34:47.723Z,82.41
2019-03-05T17:37:16.864Z,82.80
2019-03-05T17:39:50.899Z,82.95
2019-03-05T17:42:23.657Z,82.74
2019-03-05T17:44:52.961Z,83.03
2019-03-05T17:47:25.074Z,82.18
2019-03-05T17:49:55.317Z,82.97
2019-03-05T17:52:28.052Z,82.12
2019-03-05T17:54:57.132Z,81.83
2019-03-05T17:57:26.386Z,82.14
2019-03-05T17:59:55.553Z,81.37
2019-03-05T18:02:30.007Z,82.54
2019-03-05T18:04:59.204Z,81.47
2019-03-05T18:07:30.112Z,80.90
2019-03-05T18:09:59.303Z,81.21
2019-03-05T18:12:30.295Z,81.22
2019-03-05T18:14:59.872Z,80.58
2019-03-05T18:17:33.478Z,81.54
2019-03-05T18:20:02.500Z,82.24
2019-03-05T18:22:33.025Z,81.04
2019-03-05T18:25:02.632Z,82.16
2019-03-05T18:27:31.780Z,82.18
2019-03-05T18:30:00.952Z,81.78
2019-03-05T18:32:30.095Z,82.66
2019-03-05T18:35:03.598Z,82.55
2019-03-05T18:37:35.866Z,82.70
2019-03-05T18:40:05.865Z,82.99
2019-03-05T18:42:41.751Z,82.35
2019-03-05T18:45:14.349Z,83.36
2019-03-05T18:47:45.252Z,82.58
2019-03-05T18:50:17.443Z,82.38
2019-03-05T18:52:47.009Z,82.64
2019-03-05T18:55:19.280Z,82.99
2019-03-05T18:57:48.689Z,82.20
2019-03-05T19:00:22.551Z,81.74
2019-03-05T19:02:52.971Z,80.29
2019-03-05T19:05:24.027Z,82.05
2019-03-05T19:08:00.983Z,82.07
2019-03-05T19:10:33.697Z,82.77
2019-03-05T19:13:06.622Z,82.00
2019-03-05T19:15:37.393Z,81.88
2019-03-05T19:18:07.361Z,81.08
2019-03-05T19:20:39.013Z,81.77
2019-03-05T19:23:10.003Z,82.43
2019-03-05T19:25:40.670Z,81.61
2019-03-05T19:28:11.458Z,81.71
2019-03-05T19:31:03.581Z,80.78
2019-03-05T19:33:36.465Z,81.04
2019-03-05T19:36:05.719Z,81.56
2019-03-05T19:38:34.893Z,80.90
2019-03-05T19:41:05.105Z,81.62
2019-03-05T19:43:34.268Z,81.89
2019-03-05T19:46:04.565Z,81.58
2019-03-05T19:48:33.789Z,82.26
2019-03-05T19:51:02.913Z,81.14
2019-03-05T19:53:32.161Z,81.15
2019-03-05T19:56:01.332Z,81.97
2019-03-05T19:58:31.553Z,81.52
2019-03-05T20:01:12.529Z,81.29
2019-03-05T20:03:44.145Z,81.10
2019-03-05T20:06:16.544Z,80.75
2019-03-05T20:08:46.129Z,81.71
2019-03-05T20:11:17.380Z,81.84
2019-03-05T20:13:49.112Z,81.76
2019-03-05T20:16:19.762Z,80.79
2019-03-05T20:18:49.266Z,80.62
2019-03-05T20:21:18.457Z,80.84
2019-03-05T20:23:47.661Z,80.46
2019-03-05T20:26:16.810Z,80.86
2019-03-05T20:28:46.072Z,79.23
2019-03-05T20:31:15.384Z,79.31
2019-03-05T20:33:49.112Z,79.65
2019-03-05T20:36:18.284Z,79.14
2019-03-05T20:38:52.651Z,77.99
2019-03-05T20:41:22.836Z,76.34
2019-03-05T20:43:53.185Z,76.55
2019-03-05T20:46:28.546Z,77.36
2019-03-05T20:49:03.986Z,77.89
2019-03-05T20:51:33.193Z,79.29
2019-03-05T20:54:02.534Z,78.64
2019-03-05T20:56:33.022Z,79.69
2019-03-05T20:59:07.514Z,79.37
2019-03-05T21:01:36.671Z,78.58
2019-03-05T21:04:06.189Z,78.64
2019-03-05T21:06:38.425Z,77.49
2019-03-05T21:09:23.257Z,75.92
2019-03-05T21:11:53.270Z,75.91
2019-03-05T21:14:22.583Z,75.49
2019-03-05T21:16:52.189Z,74.90
2019-03-05T21:19:23.246Z,74.55
2019-03-05T21:21:55.240Z,73.83
2019-03-05T21:24:27.654Z,72.87
2019-03-05T21:27:00.029Z,72.29
2019-03-05T21:29:29.158Z,71.22
2019-03-05T21:31:58.299Z,72.00
2019-03-05T21:34:27.402Z,71.82
2019-03-05T21:37:00.681Z,73.52
2019-03-05T21:39:31.468Z,75.88
2019-03-05T21:42:01.714Z,75.33
2019-03-05T21:44:32.399Z,75.85
2019-03-05T21:47:01.522Z,76.80
2019-03-05T21:49:32.076Z,77.58
2019-03-05T21:52:03.628Z,76.75
2019-03-05T21:54:32.785Z,75.99
2019-03-05T21:57:05.722Z,77.56
2019-03-05T21:59:34.838Z,77.61
2019-03-05T22:02:06.235Z,77.56
2019-03-05T22:04:36.633Z,77.48
2019-03-05T22:07:08.928Z,77.68
2019-03-05T22:09:38.153Z,77.18
2019-03-05T22:12:08.457Z,74.56
2019-03-05T22:14:39.364Z,74.62
2019-03-05T22:17:12.169Z,73.55
2019-03-05T22:19:42.849Z,73.97
2019-03-05T22:22:12.319Z,73.33
2019-03-05T22:24:43.660Z,72.30
2019-03-05T22:27:13.849Z,73.54
2019-03-05T22:29:49.570Z,72.56
2019-03-05T22:32:19.810Z,73.23
2019-03-05T22:34:48.874Z,73.05
2019-03-05T22:37:19.191Z,73.69
2019-03-05T22:39:49.936Z,75.76
2019-03-05T22:42:21.824Z,77.93
2019-03-05T22:44:52.487Z,79.29
2019-03-05T22:47:26.404Z,79.60
2019-03-05T22:49:58.392Z,81.10
2019-03-05T22:52:27.532Z,82.68
2019-03-05T22:54:58.371Z,82.30
2019-03-05T22:57:28.577Z,82.70
2019-03-05T23:00:00.495Z,84.12
2019-03-05T23:02:33.031Z,84.02
2019-03-05T23:05:03.075Z,83.33
2019-03-05T23:07:35.116Z,82.10
2019-03-05T23:10:17.919Z,81.90
2019-03-05T23:12:50.801Z,81.33
2019-03-05T23:15:24.227Z,80.60
2019-03-05T23:17:56.090Z,80.34
2019-03-05T23:20:34.665Z,79.56
2019-03-05T23:23:03.795Z,79.75
2019-03-05T23:25:32.882Z,79.30
2019-03-05T23:28:04.126Z,78.78
2019-03-05T23:30:33.294Z,78.66
2019-03-05T23:33:04.507Z,80.31
2019-03-05T23:35:35.327Z,80.85
2019-03-05T23:38:06.786Z,80.60
2019-03-05T23:40:38.672Z,80.86
2019-03-05T23:43:10.517Z,81.33
2019-03-05T23:45:42.333Z,82.44
2019-03-05T23:48:11.407Z,82.17
2019-03-05T23:50:41.947Z,81.59
2019-03-05T23:53:13.988Z,81.64
2019-03-05T23:55:45.564Z,81.28
2019-03-05T23:58:14.660Z,81.14
